General Guemes, Argentina
Current Conditions -  °F | °C
As of 4:00 PM on Thursday 23 Oct 2014 (Local Time) from SASJ Reporting Station
Few Clouds Few Clouds  
Wind Chill: 86°   Ceiling: Unl
Heat Index: 86°   Visibility: 6mi
Dew Point: 59°   Wind: 8mph
Humidity: 40%   Direction: 50°NE
Pressure: 29.91"   Gusts: NA
Location:  24.67°S, 65.05°W
Report Text: SASJ 231900Z 05007KT 9999 FEW020 FEW035TCU 30/15 Q1013
Loading
Personal Weather Stations






























Interactive Weather Map
Tropical Storm Tracking
New forecast layout! Learn more

10-Day Weather Forecast

Advertisements
Track Severe Weather on mobile